createdAt,value
2023-11-07T00:00:07.778Z,4.01
2023-11-07T00:00:17.735Z,4.01
2023-11-07T00:00:27.737Z,4.00
2023-11-07T00:00:37.733Z,4.01
2023-11-07T00:00:47.739Z,4.01
2023-11-07T00:00:57.734Z,4.00
2023-11-07T00:01:07.763Z,4.00
2023-11-07T00:01:27.742Z,4.00
2023-11-07T00:01:37.740Z,4.01
2023-11-07T00:01:47.743Z,4.00
2023-11-07T00:01:57.755Z,4.00
2023-11-07T00:02:07.798Z,4.01
2023-11-07T00:02:17.747Z,4.00
2023-11-07T00:02:27.787Z,4.01
2023-11-07T00:02:37.915Z,4.00
2023-11-07T00:02:47.787Z,3.99
2023-11-07T00:02:57.828Z,4.00
2023-11-07T00:03:07.918Z,4.00
2023-11-07T00:03:17.968Z,4.00
2023-11-07T00:03:27.860Z,3.99
2023-11-07T00:03:47.860Z,4.00
2023-11-07T00:03:57.900Z,4.00
2023-11-07T00:04:07.845Z,4.01
2023-11-07T00:04:17.769Z,4.00
2023-11-07T00:04:27.774Z,4.00
2023-11-07T00:04:37.754Z,4.01
2023-11-07T00:04:47.763Z,3.99
2023-11-07T00:04:57.795Z,4.00
2023-11-07T00:05:07.786Z,3.99
2023-11-07T00:05:17.771Z,4.00
2023-11-07T00:05:37.989Z,3.98
2023-11-07T00:05:47.865Z,3.97
2023-11-07T00:05:57.868Z,3.96
2023-11-07T00:06:07.831Z,3.97
2023-11-07T00:06:17.824Z,3.97
2023-11-07T00:06:27.784Z,3.98
2023-11-07T00:06:37.810Z,3.98
2023-11-07T00:06:47.757Z,3.99
2023-11-07T00:06:57.760Z,3.98
2023-11-07T00:07:07.756Z,3.99
2023-11-07T00:07:17.795Z,3.94
2023-11-07T00:07:27.782Z,3.93
2023-11-07T00:07:37.956Z,3.95
2023-11-07T00:07:47.777Z,3.94
2023-11-07T00:07:57.773Z,3.93
2023-11-07T00:08:07.851Z,3.94
2023-11-07T00:08:17.768Z,3.95
2023-11-07T00:08:27.806Z,3.95
2023-11-07T00:08:37.812Z,3.96
2023-11-07T00:08:57.791Z,3.94
2023-11-07T00:09:07.855Z,3.95
2023-11-07T00:09:17.769Z,3.96
2023-11-07T00:09:27.782Z,3.95
2023-11-07T00:09:37.794Z,3.95
2023-11-07T00:09:47.776Z,3.96
2023-11-07T00:09:57.775Z,3.96
2023-11-07T00:10:17.779Z,3.96
2023-11-07T00:10:27.776Z,3.96
2023-11-07T00:10:37.780Z,3.96
2023-11-07T00:10:47.773Z,3.95
2023-11-07T00:10:57.777Z,3.96
2023-11-07T00:11:07.821Z,3.96
2023-11-07T00:11:17.783Z,3.97
2023-11-07T00:11:27.802Z,3.97
2023-11-07T00:11:37.840Z,3.97
2023-11-07T00:11:47.903Z,3.97
2023-11-07T00:11:57.828Z,3.97
2023-11-07T00:12:07.822Z,3.95
2023-11-07T00:12:17.782Z,3.94
2023-11-07T00:12:27.796Z,3.94
2023-11-07T00:12:37.815Z,3.95
2023-11-07T00:12:47.798Z,3.95
2023-11-07T00:12:57.860Z,3.93
2023-11-07T00:13:07.823Z,3.94
2023-11-07T00:13:17.783Z,3.94
2023-11-07T00:13:37.850Z,3.94
2023-11-07T00:13:47.786Z,3.93
2023-11-07T00:13:57.790Z,3.93
2023-11-07T00:14:07.846Z,3.93
2023-11-07T00:14:17.785Z,3.91
2023-11-07T00:14:27.844Z,3.91
2023-11-07T00:14:37.872Z,3.92
2023-11-07T00:14:47.818Z,3.92
2023-11-07T00:14:57.850Z,3.92
2023-11-07T00:15:07.866Z,3.92
2023-11-07T00:15:17.791Z,3.93
2023-11-07T00:15:27.798Z,3.92
2023-11-07T00:15:37.791Z,3.94
2023-11-07T00:15:47.802Z,3.93
2023-11-07T00:15:57.807Z,3.93
2023-11-07T00:16:07.792Z,3.92
2023-11-07T00:16:17.806Z,3.94
2023-11-07T00:16:27.797Z,3.93
2023-11-07T00:16:38.106Z,3.93
2023-11-07T00:16:47.806Z,3.90
2023-11-07T00:16:57.814Z,3.91
2023-11-07T00:17:07.879Z,3.90
2023-11-07T00:17:17.800Z,3.92
2023-11-07T00:17:27.846Z,3.92
2023-11-07T00:17:38.074Z,3.93
2023-11-07T00:17:47.936Z,3.94
2023-11-07T00:17:57.882Z,3.93
2023-11-07T00:18:07.948Z,3.92
2023-11-07T00:18:17.990Z,3.93
2023-11-07T00:18:28.019Z,3.93
2023-11-07T00:18:38.087Z,3.93
2023-11-07T00:18:58.039Z,3.92
2023-11-07T00:19:07.997Z,3.93
2023-11-07T00:19:17.857Z,3.94
2023-11-07T00:19:27.854Z,3.93
2023-11-07T00:19:37.917Z,3.93
2023-11-07T00:19:47.828Z,3.91
2023-11-07T00:19:57.922Z,3.89
2023-11-07T00:20:07.928Z,3.91
2023-11-07T00:20:17.825Z,3.91
2023-11-07T00:20:27.847Z,3.90
2023-11-07T00:20:37.866Z,3.88
2023-11-07T00:20:47.827Z,3.90
2023-11-07T00:20:57.878Z,3.90
2023-11-07T00:21:07.897Z,3.89
2023-11-07T00:21:17.836Z,3.90
2023-11-07T00:21:27.831Z,3.90
2023-11-07T00:21:37.834Z,3.90
2023-11-07T00:21:47.825Z,3.89
2023-11-07T00:22:07.896Z,3.90
2023-11-07T00:22:17.872Z,3.92
2023-11-07T00:22:27.831Z,3.93
2023-11-07T00:22:37.965Z,3.94
2023-11-07T00:22:47.848Z,3.93
2023-11-07T00:22:57.844Z,3.93
2023-11-07T00:23:07.897Z,3.93
2023-11-07T00:23:17.834Z,3.94
2023-11-07T00:23:27.909Z,3.92
2023-11-07T00:23:37.858Z,3.94
2023-11-07T00:23:57.863Z,3.93
2023-11-07T00:24:07.935Z,3.93
2023-11-07T00:24:17.841Z,3.95
2023-11-07T00:24:27.847Z,3.93
2023-11-07T00:24:37.899Z,3.93
2023-11-07T00:24:47.849Z,3.94
2023-11-07T00:24:57.843Z,3.93
2023-11-07T00:25:07.923Z,3.91
2023-11-07T00:25:17.891Z,3.91
2023-11-07T00:25:37.880Z,3.93
2023-11-07T00:25:47.853Z,3.93
2023-11-07T00:25:57.869Z,3.92
2023-11-07T00:26:07.846Z,3.93
2023-11-07T00:26:17.850Z,3.92
2023-11-07T00:26:27.886Z,3.92
2023-11-07T00:26:37.911Z,3.92
2023-11-07T00:26:47.937Z,3.93
2023-11-07T00:26:57.880Z,3.93
2023-11-07T00:27:07.901Z,3.92
2023-11-07T00:27:17.857Z,3.94
2023-11-07T00:27:27.864Z,3.93
2023-11-07T00:27:37.876Z,3.93
2023-11-07T00:27:47.886Z,3.92
2023-11-07T00:27:57.862Z,3.93
2023-11-07T00:28:07.865Z,3.92
2023-11-07T00:28:17.939Z,3.92
2023-11-07T00:28:27.875Z,3.93
2023-11-07T00:28:37.877Z,3.92
2023-11-07T00:28:57.868Z,3.92
2023-11-07T00:29:07.913Z,3.89
2023-11-07T00:29:17.860Z,3.90
2023-11-07T00:29:27.886Z,3.90
2023-11-07T00:29:37.895Z,3.90
2023-11-07T00:29:47.889Z,3.91
2023-11-07T00:29:57.913Z,3.90
2023-11-07T00:30:17.881Z,3.92
2023-11-07T00:30:27.869Z,3.91
2023-11-07T00:30:37.917Z,3.92
2023-11-07T00:30:47.869Z,3.91
2023-11-07T00:30:57.876Z,3.91
2023-11-07T00:31:07.878Z,3.92
2023-11-07T00:31:17.868Z,3.90
2023-11-07T00:31:27.872Z,3.91
2023-11-07T00:31:37.874Z,3.91
2023-11-07T00:31:47.881Z,3.91
2023-11-07T00:31:57.895Z,3.90
2023-11-07T00:32:07.884Z,3.90
2023-11-07T00:32:17.885Z,3.90
2023-11-07T00:32:27.957Z,3.91
2023-11-07T00:32:37.984Z,3.92
2023-11-07T00:32:47.974Z,3.91
2023-11-07T00:32:57.939Z,3.93
2023-11-07T00:33:07.999Z,3.91
2023-11-07T00:33:17.994Z,3.92
2023-11-07T00:33:28.101Z,3.93
2023-11-07T00:33:38.118Z,3.92
2023-11-07T00:33:58.047Z,3.90
2023-11-07T00:34:08.062Z,3.91
2023-11-07T00:34:17.924Z,3.91
2023-11-07T00:34:27.935Z,3.90
2023-11-07T00:34:37.938Z,3.90
2023-11-07T00:34:47.881Z,3.90
2023-11-07T00:34:57.907Z,3.89
2023-11-07T00:35:07.894Z,3.88
2023-11-07T00:35:17.894Z,3.86
2023-11-07T00:35:27.983Z,3.85
2023-11-07T00:35:47.924Z,3.85
2023-11-07T00:35:57.930Z,3.85
2023-11-07T00:36:07.972Z,3.86
2023-11-07T00:36:17.908Z,3.85
2023-11-07T00:36:27.894Z,3.85
2023-11-07T00:36:37.959Z,3.85
2023-11-07T00:36:47.932Z,3.83
2023-11-07T00:36:57.915Z,3.83
2023-11-07T00:37:07.932Z,3.86
2023-11-07T00:37:17.906Z,3.84
2023-11-07T00:37:27.902Z,3.85
2023-11-07T00:37:37.928Z,3.84
2023-11-07T00:37:47.927Z,3.83
2023-11-07T00:37:57.904Z,3.83
2023-11-07T00:38:07.929Z,3.83
2023-11-07T00:38:17.906Z,3.82
2023-11-07T00:38:27.913Z,3.83
2023-11-07T00:38:37.946Z,3.82
2023-11-07T00:38:57.937Z,3.82
2023-11-07T00:39:07.995Z,3.82
2023-11-07T00:39:17.910Z,3.84
2023-11-07T00:39:27.914Z,3.85
2023-11-07T00:39:37.987Z,3.85
2023-11-07T00:39:47.915Z,3.85
2023-11-07T00:39:57.916Z,3.87
2023-11-07T00:40:07.907Z,3.86
2023-11-07T00:40:17.909Z,3.87
2023-11-07T00:40:37.942Z,3.88
2023-11-07T00:40:47.921Z,3.86
2023-11-07T00:40:57.986Z,3.85
2023-11-07T00:41:08.025Z,3.84
2023-11-07T00:41:17.916Z,3.85
2023-11-07T00:41:27.950Z,3.85
2023-11-07T00:41:47.966Z,3.84
2023-11-07T00:41:57.984Z,3.85
2023-11-07T00:42:07.919Z,3.85
2023-11-07T00:42:17.924Z,3.84
2023-11-07T00:42:27.936Z,3.85
2023-11-07T00:42:37.919Z,3.84
2023-11-07T00:42:47.939Z,3.84
2023-11-07T00:42:57.920Z,3.86
2023-11-07T00:43:07.935Z,3.85
2023-11-07T00:43:17.931Z,3.85
2023-11-07T00:43:27.926Z,3.84
2023-11-07T00:43:37.965Z,3.84
2023-11-07T00:43:57.930Z,3.84
2023-11-07T00:44:07.991Z,3.83
2023-11-07T00:44:17.934Z,3.84
2023-11-07T00:44:27.973Z,3.85
2023-11-07T00:44:37.957Z,3.85
2023-11-07T00:44:47.941Z,3.86
2023-11-07T00:44:57.956Z,3.84
2023-11-07T00:45:07.978Z,3.83
2023-11-07T00:45:17.954Z,3.82
2023-11-07T00:45:27.932Z,3.82
2023-11-07T00:45:37.936Z,3.80
2023-11-07T00:45:47.939Z,3.81
2023-11-07T00:45:57.934Z,3.80
2023-11-07T00:46:07.940Z,3.81
2023-11-07T00:46:17.958Z,3.80
2023-11-07T00:46:27.938Z,3.80
2023-11-07T00:46:37.937Z,3.83
2023-11-07T00:46:47.937Z,3.81
2023-11-07T00:46:57.938Z,3.82
2023-11-07T00:47:07.936Z,3.82
2023-11-07T00:47:17.956Z,3.82
2023-11-07T00:47:27.979Z,3.82
2023-11-07T00:47:38.261Z,3.81
2023-11-07T00:47:48.197Z,3.81
2023-11-07T00:47:58.039Z,3.81
2023-11-07T00:48:08.079Z,3.82
2023-11-07T00:48:18.015Z,3.81
2023-11-07T00:48:28.060Z,3.81
2023-11-07T00:48:38.198Z,3.83
2023-11-07T00:48:48.027Z,3.84
2023-11-07T00:48:58.029Z,3.83
2023-11-07T00:49:08.208Z,3.82
2023-11-07T00:49:18.045Z,3.85
2023-11-07T00:49:27.962Z,3.84
2023-11-07T00:49:37.971Z,3.86
2023-11-07T00:49:57.970Z,3.86
2023-11-07T00:50:07.964Z,3.86
2023-11-07T00:50:17.959Z,3.87
2023-11-07T00:50:27.987Z,3.85
2023-11-07T00:50:38.048Z,3.86
2023-11-07T00:50:48.047Z,3.85
2023-11-07T00:50:57.991Z,3.85
2023-11-07T00:51:07.976Z,3.83
2023-11-07T00:51:27.965Z,3.81
2023-11-07T00:51:37.965Z,3.81
2023-11-07T00:51:47.965Z,3.82
2023-11-07T00:51:57.975Z,3.82
2023-11-07T00:52:07.970Z,3.85
2023-11-07T00:52:17.965Z,3.83
2023-11-07T00:52:27.969Z,3.82
2023-11-07T00:52:38.007Z,3.83
2023-11-07T00:52:48.022Z,3.83
2023-11-07T00:52:57.982Z,3.81
2023-11-07T00:53:07.969Z,3.82
2023-11-07T00:53:17.976Z,3.83
2023-11-07T00:53:28.018Z,3.83
2023-11-07T00:53:38.095Z,3.82
2023-11-07T00:53:58.006Z,3.80
2023-11-07T00:54:07.998Z,3.80
2023-11-07T00:54:17.980Z,3.80
2023-11-07T00:54:27.979Z,3.81
2023-11-07T00:54:37.980Z,3.81
2023-11-07T00:54:47.982Z,3.82
2023-11-07T00:54:57.977Z,3.83
2023-11-07T00:55:08.038Z,3.82
2023-11-07T00:55:17.981Z,3.83
2023-11-07T00:55:27.994Z,3.83
2023-11-07T00:55:37.978Z,3.83
2023-11-07T00:55:47.991Z,3.84
2023-11-07T00:55:57.990Z,3.85
2023-11-07T00:56:07.984Z,3.84
2023-11-07T00:56:18.651Z,3.85
2023-11-07T00:56:28.010Z,3.82
2023-11-07T00:56:48.028Z,3.85
2023-11-07T00:56:58.033Z,3.84
2023-11-07T00:57:07.990Z,3.84
2023-11-07T00:57:17.987Z,3.83
2023-11-07T00:57:27.992Z,3.84
2023-11-07T00:57:37.987Z,3.85
2023-11-07T00:57:47.996Z,3.83
2023-11-07T00:57:58.008Z,3.85
2023-11-07T00:58:08.003Z,3.86
2023-11-07T00:58:18.007Z,3.85
2023-11-07T00:58:38.009Z,3.85
2023-11-07T00:58:48.002Z,3.84
2023-11-07T00:58:57.996Z,3.84
2023-11-07T00:59:07.998Z,3.84
2023-11-07T00:59:18.000Z,3.84
2023-11-07T00:59:28.010Z,3.84
2023-11-07T00:59:38.023Z,3.84
2023-11-07T00:59:48.022Z,3.85
2023-11-07T00:59:58.027Z,3.83
2023-11-07T01:00:08.053Z,3.82
2023-11-07T01:00:18.011Z,3.80
2023-11-07T01:00:28.006Z,3.81
2023-11-07T01:00:38.014Z,3.81
2023-11-07T01:00:58.000Z,3.81
2023-11-07T01:01:08.064Z,3.81
2023-11-07T01:01:18.014Z,3.82
2023-11-07T01:01:28.024Z,3.84
2023-11-07T01:01:38.003Z,3.83
2023-11-07T01:01:48.006Z,3.84
2023-11-07T01:01:58.039Z,3.85
2023-11-07T01:02:08.009Z,3.82
2023-11-07T01:02:18.018Z,3.81
2023-11-07T01:02:28.065Z,3.81
2023-11-07T01:02:38.175Z,3.81
2023-11-07T01:02:48.077Z,3.82
2023-11-07T01:02:58.202Z,3.83
2023-11-07T01:03:08.132Z,3.83
2023-11-07T01:03:18.095Z,3.83
2023-11-07T01:03:28.129Z,3.84
2023-11-07T01:03:38.103Z,3.83
2023-11-07T01:03:48.151Z,3.84
2023-11-07T01:03:58.290Z,3.83
2023-11-07T01:04:08.316Z,3.83
2023-11-07T01:04:18.144Z,3.85
2023-11-07T01:04:28.084Z,3.83
2023-11-07T01:04:38.105Z,3.85
2023-11-07T01:04:48.121Z,3.85
2023-11-07T01:05:08.157Z,3.86
2023-11-07T01:05:18.199Z,3.87
2023-11-07T01:05:28.279Z,3.86
2023-11-07T01:05:38.166Z,3.87
2023-11-07T01:05:48.118Z,3.86
2023-11-07T01:05:58.103Z,3.84
2023-11-07T01:06:08.119Z,3.84
2023-11-07T01:06:18.120Z,3.84
2023-11-07T01:06:28.127Z,3.84
2023-11-07T01:06:38.115Z,3.85
2023-11-07T01:06:48.074Z,3.82
2023-11-07T01:06:58.043Z,3.84
2023-11-07T01:07:08.037Z,3.83
2023-11-07T01:07:18.032Z,3.82
2023-11-07T01:07:28.045Z,3.82
2023-11-07T01:07:38.035Z,3.84
2023-11-07T01:07:48.039Z,3.83
2023-11-07T01:07:58.057Z,3.86
2023-11-07T01:08:08.049Z,3.83
2023-11-07T01:08:18.049Z,3.84
2023-11-07T01:08:28.059Z,3.83
2023-11-07T01:08:38.057Z,3.83
2023-11-07T01:08:48.071Z,3.84
2023-11-07T01:09:08.081Z,3.84
2023-11-07T01:09:18.095Z,3.85
2023-11-07T01:09:28.049Z,3.87
2023-11-07T01:09:38.045Z,3.86
2023-11-07T01:09:48.049Z,3.83
2023-11-07T01:09:58.052Z,3.85
2023-11-07T01:10:08.055Z,3.85
2023-11-07T01:10:28.059Z,3.86
2023-11-07T01:10:38.060Z,3.85
2023-11-07T01:10:48.057Z,3.88
2023-11-07T01:10:58.057Z,3.87
2023-11-07T01:11:08.060Z,3.86
2023-11-07T01:11:18.067Z,3.86
2023-11-07T01:11:28.105Z,3.86
2023-11-07T01:11:38.142Z,3.86
2023-11-07T01:11:48.064Z,3.85
2023-11-07T01:11:58.061Z,3.87
2023-11-07T01:12:08.118Z,3.88
2023-11-07T01:12:28.065Z,3.88
2023-11-07T01:12:38.080Z,3.88
2023-11-07T01:12:48.077Z,3.91
2023-11-07T01:12:58.082Z,3.90
2023-11-07T01:13:08.066Z,3.89
2023-11-07T01:13:18.093Z,3.90
2023-11-07T01:13:28.064Z,3.89
2023-11-07T01:13:38.067Z,3.91
2023-11-07T01:13:48.081Z,3.89
2023-11-07T01:14:08.074Z,3.88
2023-11-07T01:14:18.069Z,3.86
2023-11-07T01:14:28.113Z,3.86
2023-11-07T01:14:38.085Z,3.87
2023-11-07T01:14:48.091Z,3.87
2023-11-07T01:14:58.231Z,3.87
2023-11-07T01:15:08.110Z,3.89
2023-11-07T01:15:18.093Z,3.87
2023-11-07T01:15:28.085Z,3.85
2023-11-07T01:15:38.079Z,3.87
2023-11-07T01:15:48.089Z,3.85
2023-11-07T01:16:08.091Z,3.86
2023-11-07T01:16:18.095Z,3.86
2023-11-07T01:16:28.096Z,3.86
2023-11-07T01:16:38.079Z,3.85
2023-11-07T01:16:48.106Z,3.85
2023-11-07T01:16:58.085Z,3.85
2023-11-07T01:17:08.089Z,3.87
2023-11-07T01:17:18.135Z,3.87
2023-11-07T01:17:28.319Z,3.87
2023-11-07T01:17:48.209Z,3.87
2023-11-07T01:17:58.189Z,3.87
2023-11-07T01:18:08.227Z,3.86
2023-11-07T01:18:18.252Z,3.84
2023-11-07T01:18:28.195Z,3.86
2023-11-07T01:18:38.206Z,3.85
2023-11-07T01:18:48.292Z,3.86
2023-11-07T01:19:08.359Z,3.86
2023-11-07T01:19:18.277Z,3.83
2023-11-07T01:19:28.169Z,3.85
2023-11-07T01:19:38.101Z,3.83
2023-11-07T01:19:48.097Z,3.82
2023-11-07T01:19:58.109Z,3.82
2023-11-07T01:20:18.108Z,3.84
2023-11-07T01:20:28.138Z,3.84
2023-11-07T01:20:38.107Z,3.83
2023-11-07T01:20:48.135Z,3.84
2023-11-07T01:20:58.152Z,3.83
2023-11-07T01:21:08.181Z,3.82
2023-11-07T01:21:18.106Z,3.81
2023-11-07T01:21:28.110Z,3.83
2023-11-07T01:21:38.111Z,3.83
2023-11-07T01:21:48.112Z,3.83
2023-11-07T01:21:58.107Z,3.83
2023-11-07T01:22:08.109Z,3.84
2023-11-07T01:22:18.119Z,3.84
2023-11-07T01:22:28.116Z,3.82
2023-11-07T01:22:38.101Z,3.82
2023-11-07T01:22:58.128Z,3.84
2023-11-07T01:23:08.104Z,3.83
2023-11-07T01:23:18.130Z,3.83
2023-11-07T01:23:28.128Z,3.85
2023-11-07T01:23:38.188Z,3.86
2023-11-07T01:23:48.129Z,3.86
2023-11-07T01:24:08.124Z,3.83
2023-11-07T01:24:18.127Z,3.83
2023-11-07T01:24:28.116Z,3.84
2023-11-07T01:24:38.113Z,3.84
2023-11-07T01:24:48.130Z,3.83
2023-11-07T01:24:58.126Z,3.83
2023-11-07T01:25:08.120Z,3.83
2023-11-07T01:25:28.117Z,3.82
2023-11-07T01:25:38.122Z,3.79
2023-11-07T01:25:48.116Z,3.80
2023-11-07T01:25:58.116Z,3.79
2023-11-07T01:26:08.134Z,3.80
2023-11-07T01:26:18.145Z,3.79
2023-11-07T01:26:28.162Z,3.80
2023-11-07T01:26:38.136Z,3.80
2023-11-07T01:26:48.171Z,3.82
2023-11-07T01:26:58.167Z,3.79
2023-11-07T01:27:08.162Z,3.80
2023-11-07T01:27:28.123Z,3.81
2023-11-07T01:27:38.157Z,3.80
2023-11-07T01:27:48.133Z,3.81
2023-11-07T01:27:58.143Z,3.82
2023-11-07T01:28:08.136Z,3.83
2023-11-07T01:28:18.131Z,3.82
2023-11-07T01:28:28.134Z,3.83
2023-11-07T01:28:38.144Z,3.83
2023-11-07T01:28:48.139Z,3.84
2023-11-07T01:29:08.144Z,3.80
2023-11-07T01:29:18.135Z,3.80
2023-11-07T01:29:28.200Z,3.80
2023-11-07T01:29:38.145Z,3.79
2023-11-07T01:29:48.195Z,3.81
2023-11-07T01:29:58.185Z,3.81
2023-11-07T01:30:08.157Z,3.82
2023-11-07T01:30:18.146Z,3.82
2023-11-07T01:30:28.144Z,3.82
2023-11-07T01:30:38.136Z,3.82
2023-11-07T01:30:48.142Z,3.83
2023-11-07T01:30:58.144Z,3.84
2023-11-07T01:31:08.148Z,3.83
2023-11-07T01:31:18.152Z,3.84
2023-11-07T01:31:38.160Z,3.86
2023-11-07T01:31:48.168Z,3.85
2023-11-07T01:31:58.143Z,3.85
2023-11-07T01:32:08.152Z,3.82
2023-11-07T01:32:18.153Z,3.82
2023-11-07T01:32:28.226Z,3.82
2023-11-07T01:32:38.402Z,3.82
2023-11-07T01:32:48.289Z,3.82
2023-11-07T01:32:58.288Z,3.84
2023-11-07T01:33:18.266Z,3.84
2023-11-07T01:33:28.254Z,3.83
2023-11-07T01:33:38.285Z,3.84
2023-11-07T01:33:48.257Z,3.84
2023-11-07T01:33:58.243Z,3.84
2023-11-07T01:34:08.308Z,3.83
2023-11-07T01:34:18.192Z,3.83
2023-11-07T01:34:28.188Z,3.82
2023-11-07T01:34:38.187Z,3.82
2023-11-07T01:34:48.158Z,3.83
2023-11-07T01:34:58.161Z,3.82
2023-11-07T01:35:08.247Z,3.82
2023-11-07T01:35:28.214Z,3.80
2023-11-07T01:35:38.194Z,3.81
2023-11-07T01:35:48.184Z,3.81
2023-11-07T01:35:58.233Z,3.82
2023-11-07T01:36:08.216Z,3.82
2023-11-07T01:36:18.166Z,3.81
2023-11-07T01:36:28.209Z,3.82
2023-11-07T01:36:38.168Z,3.81
2023-11-07T01:36:48.164Z,3.82
2023-11-07T01:36:58.181Z,3.81
2023-11-07T01:37:08.179Z,3.83
2023-11-07T01:37:18.200Z,3.81
2023-11-07T01:37:28.165Z,3.82
2023-11-07T01:37:38.180Z,3.81
2023-11-07T01:37:48.169Z,3.83
2023-11-07T01:37:58.191Z,3.82
2023-11-07T01:38:08.173Z,3.83
2023-11-07T01:38:18.177Z,3.83
2023-11-07T01:38:28.292Z,3.84
2023-11-07T01:38:48.234Z,3.84
2023-11-07T01:38:58.207Z,3.83
2023-11-07T01:39:08.183Z,3.83
2023-11-07T01:39:18.175Z,3.82
2023-11-07T01:39:28.174Z,3.82
2023-11-07T01:39:38.177Z,3.80
2023-11-07T01:39:48.181Z,3.81
2023-11-07T01:39:58.184Z,3.80
2023-11-07T01:40:08.173Z,3.80
2023-11-07T01:40:28.173Z,3.80
2023-11-07T01:40:38.190Z,3.80
2023-11-07T01:40:48.185Z,3.81
2023-11-07T01:40:58.186Z,3.81
2023-11-07T01:41:08.193Z,3.81
2023-11-07T01:41:18.186Z,3.79
2023-11-07T01:41:28.372Z,3.81
2023-11-07T01:41:38.191Z,3.81
2023-11-07T01:41:58.237Z,3.81
2023-11-07T01:42:08.201Z,3.80
2023-11-07T01:42:18.192Z,3.80
2023-11-07T01:42:28.185Z,3.79
2023-11-07T01:42:38.203Z,3.78
2023-11-07T01:42:48.209Z,3.78
2023-11-07T01:42:58.197Z,3.78
2023-11-07T01:43:08.185Z,3.79
2023-11-07T01:43:18.198Z,3.80
2023-11-07T01:43:38.184Z,3.79
2023-11-07T01:43:48.182Z,3.79
2023-11-07T01:43:58.187Z,3.79
2023-11-07T01:44:08.195Z,3.77
2023-11-07T01:44:18.179Z,3.80
2023-11-07T01:44:28.392Z,3.80
2023-11-07T01:44:48.257Z,3.78
2023-11-07T01:44:58.228Z,3.78
2023-11-07T01:45:08.228Z,3.80
2023-11-07T01:45:18.218Z,3.80
2023-11-07T01:45:28.196Z,3.80
2023-11-07T01:45:38.195Z,3.80
2023-11-07T01:45:48.190Z,3.81
2023-11-07T01:45:58.195Z,3.82
2023-11-07T01:46:08.190Z,3.80
2023-11-07T01:46:18.198Z,3.80
2023-11-07T01:46:28.202Z,3.81
2023-11-07T01:46:38.200Z,3.81
2023-11-07T01:46:48.199Z,3.80
2023-11-07T01:46:58.196Z,3.79
2023-11-07T01:47:08.181Z,3.80
2023-11-07T01:47:18.214Z,3.78
2023-11-07T01:47:28.227Z,3.78
2023-11-07T01:47:38.321Z,3.80
2023-11-07T01:47:48.267Z,3.79
2023-11-07T01:47:58.273Z,3.80
2023-11-07T01:48:08.354Z,3.81
2023-11-07T01:48:18.303Z,3.80
2023-11-07T01:48:38.308Z,3.79
2023-11-07T01:48:48.356Z,3.80
2023-11-07T01:48:58.378Z,3.80
2023-11-07T01:49:08.257Z,3.80
2023-11-07T01:49:18.216Z,3.81
2023-11-07T01:49:28.254Z,3.80
2023-11-07T01:49:38.231Z,3.82
2023-11-07T01:49:48.215Z,3.81
2023-11-07T01:49:58.209Z,3.82
2023-11-07T01:50:08.214Z,3.84
2023-11-07T01:50:18.206Z,3.85
2023-11-07T01:50:38.237Z,3.83
2023-11-07T01:50:48.217Z,3.81
2023-11-07T01:50:58.249Z,3.79
2023-11-07T01:51:08.252Z,3.80
2023-11-07T01:51:18.213Z,3.80
2023-11-07T01:51:28.217Z,3.79
2023-11-07T01:51:38.233Z,3.81
2023-11-07T01:51:48.219Z,3.80
2023-11-07T01:51:58.217Z,3.82
2023-11-07T01:52:08.217Z,3.82
2023-11-07T01:52:18.233Z,3.81
2023-11-07T01:52:28.237Z,3.80
2023-11-07T01:52:48.222Z,3.81
2023-11-07T01:52:58.231Z,3.80
2023-11-07T01:53:08.242Z,3.80
2023-11-07T01:53:18.226Z,3.79
2023-11-07T01:53:28.235Z,3.80
2023-11-07T01:53:38.258Z,3.80
2023-11-07T01:53:48.268Z,3.81
2023-11-07T01:54:08.225Z,3.84
2023-11-07T01:54:18.229Z,3.84
2023-11-07T01:54:28.239Z,3.84
2023-11-07T01:54:38.272Z,3.84
2023-11-07T01:54:48.232Z,3.84
2023-11-07T01:54:58.225Z,3.85
2023-11-07T01:55:08.233Z,3.84
2023-11-07T01:55:18.249Z,3.83
2023-11-07T01:55:28.239Z,3.82
2023-11-07T01:55:38.237Z,3.82
2023-11-07T01:55:48.241Z,3.83
2023-11-07T01:55:58.243Z,3.81
2023-11-07T01:56:08.233Z,3.80
2023-11-07T01:56:18.236Z,3.81
2023-11-07T01:56:28.240Z,3.79
2023-11-07T01:56:38.279Z,3.81
2023-11-07T01:56:48.287Z,3.82
2023-11-07T01:56:58.314Z,3.83
2023-11-07T01:57:08.297Z,3.83
2023-11-07T01:57:28.245Z,3.84
2023-11-07T01:57:38.265Z,3.85
2023-11-07T01:57:48.257Z,3.84
2023-11-07T01:57:58.251Z,3.87
2023-11-07T01:58:08.242Z,3.85
2023-11-07T01:58:18.243Z,3.84
2023-11-07T01:58:28.244Z,3.83
2023-11-07T01:58:48.261Z,3.83
2023-11-07T01:58:58.260Z,3.83
2023-11-07T01:59:08.251Z,3.84
2023-11-07T01:59:18.260Z,3.85
2023-11-07T01:59:28.253Z,3.84
2023-11-07T01:59:38.299Z,3.86
2023-11-07T01:59:48.295Z,3.85
2023-11-07T01:59:58.265Z,3.86
2023-11-07T02:00:08.296Z,3.85
2023-11-07T02:00:18.256Z,3.86
2023-11-07T02:00:28.264Z,3.85
2023-11-07T02:00:38.255Z,3.84
2023-11-07T02:00:48.252Z,3.83
2023-11-07T02:00:58.259Z,3.85
2023-11-07T02:01:08.257Z,3.84
2023-11-07T02:01:18.272Z,3.84
2023-11-07T02:01:38.258Z,3.83
2023-11-07T02:01:48.262Z,3.82
2023-11-07T02:01:58.278Z,3.84
2023-11-07T02:02:08.259Z,3.85
2023-11-07T02:02:18.266Z,3.84
2023-11-07T02:02:28.282Z,3.85
2023-11-07T02:02:38.315Z,3.86
2023-11-07T02:02:48.396Z,3.83
2023-11-07T02:02:58.364Z,3.83
2023-11-07T02:03:18.344Z,3.81
2023-11-07T02:03:28.336Z,3.81
2023-11-07T02:03:38.355Z,3.79
2023-11-07T02:03:48.372Z,3.80
2023-11-07T02:03:58.316Z,3.81
2023-11-07T02:04:08.406Z,3.80
2023-11-07T02:04:28.306Z,3.79
2023-11-07T02:04:38.397Z,3.80
2023-11-07T02:04:48.966Z,3.78
2023-11-07T02:04:58.300Z,3.79
2023-11-07T02:05:08.316Z,3.78
2023-11-07T02:05:18.287Z,3.78
2023-11-07T02:05:28.266Z,3.79
2023-11-07T02:05:48.317Z,3.80
2023-11-07T02:05:58.430Z,3.81
2023-11-07T02:06:08.350Z,3.81
2023-11-07T02:06:18.296Z,3.80
2023-11-07T02:06:28.273Z,3.80
2023-11-07T02:06:38.284Z,3.81
2023-11-07T02:06:58.285Z,3.81
2023-11-07T02:07:08.281Z,3.82
2023-11-07T02:07:18.297Z,3.83
2023-11-07T02:07:28.290Z,3.83
2023-11-07T02:07:38.313Z,3.82
2023-11-07T02:07:48.286Z,3.82
2023-11-07T02:07:58.304Z,3.81
2023-11-07T02:08:08.284Z,3.82
2023-11-07T02:08:18.295Z,3.83
2023-11-07T02:08:28.289Z,3.82
2023-11-07T02:08:38.314Z,3.81
2023-11-07T02:08:48.304Z,3.83
2023-11-07T02:09:08.325Z,3.83
2023-11-07T02:09:18.293Z,3.80
2023-11-07T02:09:28.291Z,3.80
2023-11-07T02:09:38.297Z,3.81
2023-11-07T02:09:48.306Z,3.82
2023-11-07T02:09:58.294Z,3.83
2023-11-07T02:10:08.294Z,3.84
2023-11-07T02:10:18.290Z,3.82
2023-11-07T02:10:28.291Z,3.82
2023-11-07T02:10:38.304Z,3.82
2023-11-07T02:10:48.300Z,3.82
2023-11-07T02:10:58.302Z,3.83
2023-11-07T02:11:08.295Z,3.85
2023-11-07T02:11:18.307Z,3.82
2023-11-07T02:11:28.298Z,3.82
2023-11-07T02:11:38.313Z,3.82
2023-11-07T02:11:48.381Z,3.80
2023-11-07T02:11:58.332Z,3.79
2023-11-07T02:12:08.349Z,3.82
2023-11-07T02:12:18.300Z,3.79
2023-11-07T02:12:28.316Z,3.79
2023-11-07T02:12:38.316Z,3.82
2023-11-07T02:12:48.312Z,3.80
2023-11-07T02:12:58.325Z,3.79
2023-11-07T02:13:08.306Z,3.80
2023-11-07T02:13:18.325Z,3.80
2023-11-07T02:13:28.314Z,3.79
2023-11-07T02:13:38.317Z,3.80
2023-11-07T02:13:48.328Z,3.78
2023-11-07T02:14:08.344Z,3.79
2023-11-07T02:14:18.329Z,3.80
2023-11-07T02:14:28.335Z,3.80
2023-11-07T02:14:38.469Z,3.80
2023-11-07T02:14:48.421Z,3.78
2023-11-07T02:14:58.398Z,3.79
2023-11-07T02:15:08.353Z,3.79
2023-11-07T02:15:18.351Z,3.79
2023-11-07T02:15:28.345Z,3.78
2023-11-07T02:15:48.309Z,3.80
2023-11-07T02:15:58.328Z,3.79
2023-11-07T02:16:08.324Z,3.80
2023-11-07T02:16:18.320Z,3.80
2023-11-07T02:16:28.318Z,3.77
2023-11-07T02:16:38.352Z,3.80
2023-11-07T02:16:48.326Z,3.80
2023-11-07T02:16:58.335Z,3.79
2023-11-07T02:17:08.347Z,3.79
2023-11-07T02:17:18.328Z,3.81
2023-11-07T02:17:28.361Z,3.80
2023-11-07T02:17:38.401Z,3.82
2023-11-07T02:17:48.412Z,3.82
2023-11-07T02:17:58.416Z,3.80
2023-11-07T02:18:08.446Z,3.80
2023-11-07T02:18:18.439Z,3.79
2023-11-07T02:18:28.410Z,3.80
2023-11-07T02:18:38.405Z,3.81
2023-11-07T02:18:48.417Z,3.78
2023-11-07T02:19:08.359Z,3.78
2023-11-07T02:19:18.353Z,3.78
2023-11-07T02:19:28.332Z,3.80
2023-11-07T02:19:38.332Z,3.78
2023-11-07T02:19:48.449Z,3.80
2023-11-07T02:19:58.332Z,3.81
2023-11-07T02:20:08.348Z,3.81
2023-11-07T02:20:18.345Z,3.79
2023-11-07T02:20:28.333Z,3.79
2023-11-07T02:20:48.384Z,3.80
2023-11-07T02:20:58.346Z,3.79
2023-11-07T02:21:08.378Z,3.79
2023-11-07T02:21:18.340Z,3.80
2023-11-07T02:21:28.354Z,3.78
2023-11-07T02:21:38.345Z,3.79
2023-11-07T02:21:48.357Z,3.81
2023-11-07T02:21:58.340Z,3.79
2023-11-07T02:22:08.345Z,3.80
2023-11-07T02:22:18.349Z,3.80
2023-11-07T02:22:28.345Z,3.78
2023-11-07T02:22:38.356Z,3.79
2023-11-07T02:22:48.345Z,3.78
2023-11-07T02:22:58.389Z,3.82
2023-11-07T02:23:08.361Z,3.78
2023-11-07T02:23:18.352Z,3.79
2023-11-07T02:23:28.352Z,3.78